RIW weather

Riverton Regional Airport
Riverton, Wyoming, United States

Public forecast

Using degrees Fahrenheit for public forecast. Weather courtesy of forecast.io.

METAR (pilot weather report)

Retrieved 2019/09/16 02:53 UTC (8 minutes ago):

KRIW 160253Z AUTO 20008KT 10SM CLR 23/M01 A2996 RMK AO2 SLP082 T02281006 53001

TAF (pilot weather forecast)

Forecast is more than 12 hours old.

Retrieved 2019/09/15 00:27 UTC (1 day ago):

TAF KRIW 152325Z 1600/1624 20010KT P6SM SCT200 FM161200 VRB06KT P6SM SKC FM162000 21014G24KT P6SM SCT200